sensor_id;sensor_type;location;lat;lon;timestamp;temperature;humidity
16301;DHT22;8258;51.020;4.248;2022-09-09T00:01:47;13.70;99.90
16301;DHT22;8258;51.020;4.248;2022-09-09T00:04:23;13.70;99.90
16301;DHT22;8258;51.020;4.248;2022-09-09T00:06:59;13.70;99.90
16301;DHT22;8258;51.020;4.248;2022-09-09T00:09:29;13.70;99.90
16301;DHT22;8258;51.020;4.248;2022-09-09T00:12:02;13.70;99.90
16301;DHT22;8258;51.020;4.248;2022-09-09T00:14:39;13.70;99.90
16301;DHT22;8258;51.020;4.248;2022-09-09T00:17:12;13.70;99.90
16301;DHT22;8258;51.020;4.248;2022-09-09T00:19:44;13.70;99.90
16301;DHT22;8258;51.020;4.248;2022-09-09T00:22:17;13.70;99.90
16301;DHT22;8258;51.020;4.248;2022-09-09T00:24:46;13.70;99.90
16301;DHT22;8258;51.020;4.248;2022-09-09T00:27:22;13.60;99.90
16301;DHT22;8258;51.020;4.248;2022-09-09T00:29:56;13.60;99.90
16301;DHT22;8258;51.020;4.248;2022-09-09T00:32:28;13.70;99.90
16301;DHT22;8258;51.020;4.248;2022-09-09T00:34:59;13.70;99.90
16301;DHT22;8258;51.020;4.248;2022-09-09T00:37:26;13.70;99.90
16301;DHT22;8258;51.020;4.248;2022-09-09T00:39:59;13.70;99.90
16301;DHT22;8258;51.020;4.248;2022-09-09T00:42:38;13.80;99.90
16301;DHT22;8258;51.020;4.248;2022-09-09T00:45:19;13.80;99.90
16301;DHT22;8258;51.020;4.248;2022-09-09T00:47:50;13.90;99.90
16301;DHT22;8258;51.020;4.248;2022-09-09T00:50:32;13.90;99.90
16301;DHT22;8258;51.020;4.248;2022-09-09T00:53:10;14.00;99.90
16301;DHT22;8258;51.020;4.248;2022-09-09T00:55:45;14.00;99.90
16301;DHT22;8258;51.020;4.248;2022-09-09T00:58:16;14.00;99.90
16301;DHT22;8258;51.020;4.248;2022-09-09T01:00:44;14.00;99.90
16301;DHT22;8258;51.020;4.248;2022-09-09T01:03:21;14.00;99.90
16301;DHT22;8258;51.020;4.248;2022-09-09T01:09:05;14.00;99.90
16301;DHT22;8258;51.020;4.248;2022-09-09T01:11:41;14.00;99.90
16301;DHT22;8258;51.020;4.248;2022-09-09T01:14:17;14.10;99.90
16301;DHT22;8258;51.020;4.248;2022-09-09T01:16:46;14.20;99.90
16301;DHT22;8258;51.020;4.248;2022-09-09T01:19:20;14.20;99.90
16301;DHT22;8258;51.020;4.248;2022-09-09T01:21:59;14.10;99.90
16301;DHT22;8258;51.020;4.248;2022-09-09T01:24:31;14.10;99.90
16301;DHT22;8258;51.020;4.248;2022-09-09T01:27:04;14.10;99.90
16301;DHT22;8258;51.020;4.248;2022-09-09T01:29:32;14.00;99.90
16301;DHT22;8258;51.020;4.248;2022-09-09T01:32:01;14.00;99.90
16301;DHT22;8258;51.020;4.248;2022-09-09T01:34:31;14.00;99.90
16301;DHT22;8258;51.020;4.248;2022-09-09T01:37:02;14.00;99.90
16301;DHT22;8258;51.020;4.248;2022-09-09T01:39:31;13.90;99.90
16301;DHT22;8258;51.020;4.248;2022-09-09T01:41:59;13.90;99.90
16301;DHT22;8258;51.020;4.248;2022-09-09T01:44:29;14.00;99.90
16301;DHT22;8258;51.020;4.248;2022-09-09T01:46:56;14.00;99.90
16301;DHT22;8258;51.020;4.248;2022-09-09T01:49:23;13.90;99.90
16301;DHT22;8258;51.020;4.248;2022-09-09T01:51:53;13.90;99.90
16301;DHT22;8258;51.020;4.248;2022-09-09T01:54:22;13.90;99.90
16301;DHT22;8258;51.020;4.248;2022-09-09T01:56:59;14.00;99.90
16301;DHT22;8258;51.020;4.248;2022-09-09T01:59:40;14.00;99.90
16301;DHT22;8258;51.020;4.248;2022-09-09T02:02:11;14.00;99.90
16301;DHT22;8258;51.020;4.248;2022-09-09T02:04:41;14.10;99.90
16301;DHT22;8258;51.020;4.248;2022-09-09T02:07:22;14.10;99.90
16301;DHT22;8258;51.020;4.248;2022-09-09T02:09:58;14.10;99.90
16301;DHT22;8258;51.020;4.248;2022-09-09T02:12:28;14.20;99.90
16301;DHT22;8258;51.020;4.248;2022-09-09T02:15:03;14.20;99.90
16301;DHT22;8258;51.020;4.248;2022-09-09T02:17:35;14.20;99.90
16301;DHT22;8258;51.020;4.248;2022-09-09T02:20:06;14.20;99.90
16301;DHT22;8258;51.020;4.248;2022-09-09T02:22:35;14.30;99.90
16301;DHT22;8258;51.020;4.248;2022-09-09T02:25:10;14.30;99.90
16301;DHT22;8258;51.020;4.248;2022-09-09T02:27:39;14.30;99.90
16301;DHT22;8258;51.020;4.248;2022-09-09T02:30:10;14.30;99.90
16301;DHT22;8258;51.020;4.248;2022-09-09T02:32:37;14.30;99.90
16301;DHT22;8258;51.020;4.248;2022-09-09T02:35:08;14.40;99.90
16301;DHT22;8258;51.020;4.248;2022-09-09T02:37:38;14.30;99.90
16301;DHT22;8258;51.020;4.248;2022-09-09T02:40:07;14.40;99.90
16301;DHT22;8258;51.020;4.248;2022-09-09T02:42:39;14.40;99.90
16301;DHT22;8258;51.020;4.248;2022-09-09T02:45:09;14.40;99.90
16301;DHT22;8258;51.020;4.248;2022-09-09T02:47:40;14.40;99.90
16301;DHT22;8258;51.020;4.248;2022-09-09T02:50:14;14.40;99.90
16301;DHT22;8258;51.020;4.248;2022-09-09T02:52:59;14.40;99.90
16301;DHT22;8258;51.020;4.248;2022-09-09T02:55:40;14.40;99.90
16301;DHT22;8258;51.020;4.248;2022-09-09T02:58:11;14.40;99.90
16301;DHT22;8258;51.020;4.248;2022-09-09T03:00:45;14.40;99.90
16301;DHT22;8258;51.020;4.248;2022-09-09T03:03:13;14.40;99.90
16301;DHT22;8258;51.020;4.248;2022-09-09T03:05:41;14.50;99.90
16301;DHT22;8258;51.020;4.248;2022-09-09T03:08:09;14.40;99.90
16301;DHT22;8258;51.020;4.248;2022-09-09T03:10:35;14.40;99.90
16301;DHT22;8258;51.020;4.248;2022-09-09T03:13:03;14.40;99.90
16301;DHT22;8258;51.020;4.248;2022-09-09T03:15:31;14.40;99.90
16301;DHT22;8258;51.020;4.248;2022-09-09T03:18:00;14.40;99.90
16301;DHT22;8258;51.020;4.248;2022-09-09T03:20:28;14.40;99.90
16301;DHT22;8258;51.020;4.248;2022-09-09T03:22:56;14.40;99.90
16301;DHT22;8258;51.020;4.248;2022-09-09T03:25:24;14.40;99.90
16301;DHT22;8258;51.020;4.248;2022-09-09T03:27:51;14.40;99.90
16301;DHT22;8258;51.020;4.248;2022-09-09T03:30:20;14.40;99.90
16301;DHT22;8258;51.020;4.248;2022-09-09T03:32:46;14.50;99.90
16301;DHT22;8258;51.020;4.248;2022-09-09T03:35:15;14.40;99.90
16301;DHT22;8258;51.020;4.248;2022-09-09T03:37:42;14.50;99.90
16301;DHT22;8258;51.020;4.248;2022-09-09T03:40:10;14.40;99.90
16301;DHT22;8258;51.020;4.248;2022-09-09T03:42:37;14.50;99.90
16301;DHT22;8258;51.020;4.248;2022-09-09T03:45:05;14.40;99.90
16301;DHT22;8258;51.020;4.248;2022-09-09T03:47:33;14.40;99.90
16301;DHT22;8258;51.020;4.248;2022-09-09T03:50:00;14.40;99.90
16301;DHT22;8258;51.020;4.248;2022-09-09T03:52:28;14.40;99.90
16301;DHT22;8258;51.020;4.248;2022-09-09T03:54:56;14.40;99.90
16301;DHT22;8258;51.020;4.248;2022-09-09T03:57:23;14.40;99.90
16301;DHT22;8258;51.020;4.248;2022-09-09T03:59:50;14.50;99.90
16301;DHT22;8258;51.020;4.248;2022-09-09T04:02:17;14.50;99.90
16301;DHT22;8258;51.020;4.248;2022-09-09T04:04:43;14.60;99.90
16301;DHT22;8258;51.020;4.248;2022-09-09T04:07:10;14.60;99.90
16301;DHT22;8258;51.020;4.248;2022-09-09T04:09:38;14.70;99.90
16301;DHT22;8258;51.020;4.248;2022-09-09T04:12:12;14.60;99.90
16301;DHT22;8258;51.020;4.248;2022-09-09T04:14:39;14.60;99.90
16301;DHT22;8258;51.020;4.248;2022-09-09T04:17:06;14.60;99.90
16301;DHT22;8258;51.020;4.248;2022-09-09T04:19:33;14.60;99.90
16301;DHT22;8258;51.020;4.248;2022-09-09T04:22:00;14.60;99.90
16301;DHT22;8258;51.020;4.248;2022-09-09T04:24:26;14.60;99.90
16301;DHT22;8258;51.020;4.248;2022-09-09T04:26:56;14.60;99.90
16301;DHT22;8258;51.020;4.248;2022-09-09T04:29:22;14.50;99.90
16301;DHT22;8258;51.020;4.248;2022-09-09T04:31:49;14.50;99.90
16301;DHT22;8258;51.020;4.248;2022-09-09T04:34:16;14.50;99.90
16301;DHT22;8258;51.020;4.248;2022-09-09T04:36:43;14.60;99.90
16301;DHT22;8258;51.020;4.248;2022-09-09T04:39:11;14.50;99.90
16301;DHT22;8258;51.020;4.248;2022-09-09T04:41:38;14.60;99.90
16301;DHT22;8258;51.020;4.248;2022-09-09T04:44:06;14.60;99.90
16301;DHT22;8258;51.020;4.248;2022-09-09T04:46:33;14.60;99.90
16301;DHT22;8258;51.020;4.248;2022-09-09T04:49:00;14.60;99.90
16301;DHT22;8258;51.020;4.248;2022-09-09T04:51:27;14.60;99.90
16301;DHT22;8258;51.020;4.248;2022-09-09T04:53:56;14.60;99.90
16301;DHT22;8258;51.020;4.248;2022-09-09T04:56:23;14.70;99.90
16301;DHT22;8258;51.020;4.248;2022-09-09T04:58:52;14.70;99.90
16301;DHT22;8258;51.020;4.248;2022-09-09T05:01:21;14.70;99.90
16301;DHT22;8258;51.020;4.248;2022-09-09T05:03:49;14.70;99.90
16301;DHT22;8258;51.020;4.248;2022-09-09T05:06:19;14.70;99.90
16301;DHT22;8258;51.020;4.248;2022-09-09T05:08:46;14.70;99.90
16301;DHT22;8258;51.020;4.248;2022-09-09T05:11:19;14.70;99.90
16301;DHT22;8258;51.020;4.248;2022-09-09T05:13:48;14.70;99.90
16301;DHT22;8258;51.020;4.248;2022-09-09T05:16:16;14.80;99.90
16301;DHT22;8258;51.020;4.248;2022-09-09T05:18:45;14.80;99.90
16301;DHT22;8258;51.020;4.248;2022-09-09T05:21:14;14.90;99.90
16301;DHT22;8258;51.020;4.248;2022-09-09T05:23:42;14.90;99.90
16301;DHT22;8258;51.020;4.248;2022-09-09T05:26:12;14.90;99.90
16301;DHT22;8258;51.020;4.248;2022-09-09T05:28:39;15.00;99.90
16301;DHT22;8258;51.020;4.248;2022-09-09T05:31:07;15.00;99.90
16301;DHT22;8258;51.020;4.248;2022-09-09T05:33:37;15.10;99.90
16301;DHT22;8258;51.020;4.248;2022-09-09T05:36:09;15.10;99.90
16301;DHT22;8258;51.020;4.248;2022-09-09T05:38:39;15.20;99.90
16301;DHT22;8258;51.020;4.248;2022-09-09T05:41:06;15.20;99.90
16301;DHT22;8258;51.020;4.248;2022-09-09T05:43:33;15.20;99.90
16301;DHT22;8258;51.020;4.248;2022-09-09T05:46:02;15.20;99.90
16301;DHT22;8258;51.020;4.248;2022-09-09T05:48:31;15.20;99.90
16301;DHT22;8258;51.020;4.248;2022-09-09T05:50:59;15.20;99.90
16301;DHT22;8258;51.020;4.248;2022-09-09T05:53:27;15.20;99.90
16301;DHT22;8258;51.020;4.248;2022-09-09T05:56:02;15.20;99.90
16301;DHT22;8258;51.020;4.248;2022-09-09T05:58:30;15.20;99.90
16301;DHT22;8258;51.020;4.248;2022-09-09T06:01:04;15.20;99.90
16301;DHT22;8258;51.020;4.248;2022-09-09T06:03:32;15.20;99.90
16301;DHT22;8258;51.020;4.248;2022-09-09T06:06:00;15.30;99.90
16301;DHT22;8258;51.020;4.248;2022-09-09T06:08:29;15.30;99.90
16301;DHT22;8258;51.020;4.248;2022-09-09T06:11:01;15.40;99.90
16301;DHT22;8258;51.020;4.248;2022-09-09T06:13:30;15.50;99.90
16301;DHT22;8258;51.020;4.248;2022-09-09T06:15:57;15.70;99.90
16301;DHT22;8258;51.020;4.248;2022-09-09T06:18:25;15.70;99.90
16301;DHT22;8258;51.020;4.248;2022-09-09T06:20:57;15.70;99.90
16301;DHT22;8258;51.020;4.248;2022-09-09T06:23:24;15.60;99.90
16301;DHT22;8258;51.020;4.248;2022-09-09T06:26:01;15.50;99.90
16301;DHT22;8258;51.020;4.248;2022-09-09T06:28:28;15.60;99.90
16301;DHT22;8258;51.020;4.248;2022-09-09T06:30:58;15.70;99.90
16301;DHT22;8258;51.020;4.248;2022-09-09T06:33:25;16.00;99.90
16301;DHT22;8258;51.020;4.248;2022-09-09T06:35:52;15.90;99.90
16301;DHT22;8258;51.020;4.248;2022-09-09T06:38:19;15.80;99.90
16301;DHT22;8258;51.020;4.248;2022-09-09T06:40:53;15.90;99.90
16301;DHT22;8258;51.020;4.248;2022-09-09T06:43:21;15.90;99.90
16301;DHT22;8258;51.020;4.248;2022-09-09T06:45:55;16.30;99.90
16301;DHT22;8258;51.020;4.248;2022-09-09T06:48:22;16.60;99.90
16301;DHT22;8258;51.020;4.248;2022-09-09T06:50:51;16.90;99.90
16301;DHT22;8258;51.020;4.248;2022-09-09T06:53:19;16.90;99.90
16301;DHT22;8258;51.020;4.248;2022-09-09T06:55:46;16.60;99.90
16301;DHT22;8258;51.020;4.248;2022-09-09T06:58:14;16.40;99.90
16301;DHT22;8258;51.020;4.248;2022-09-09T07:00:41;16.80;99.90
16301;DHT22;8258;51.020;4.248;2022-09-09T07:03:10;16.80;99.90
16301;DHT22;8258;51.020;4.248;2022-09-09T07:05:37;16.70;99.90
16301;DHT22;8258;51.020;4.248;2022-09-09T07:08:04;16.60;99.90
16301;DHT22;8258;51.020;4.248;2022-09-09T07:10:31;16.50;99.90
16301;DHT22;8258;51.020;4.248;2022-09-09T07:12:59;16.50;99.90
16301;DHT22;8258;51.020;4.248;2022-09-09T07:15:28;16.40;99.90
16301;DHT22;8258;51.020;4.248;2022-09-09T07:17:55;16.40;99.90
16301;DHT22;8258;51.020;4.248;2022-09-09T07:20:27;16.40;99.90
16301;DHT22;8258;51.020;4.248;2022-09-09T07:22:55;16.40;99.90
16301;DHT22;8258;51.020;4.248;2022-09-09T07:25:22;16.50;99.90
16301;DHT22;8258;51.020;4.248;2022-09-09T07:27:49;16.70;99.90
16301;DHT22;8258;51.020;4.248;2022-09-09T07:30:16;17.00;99.90
16301;DHT22;8258;51.020;4.248;2022-09-09T07:32:46;17.40;99.90
16301;DHT22;8258;51.020;4.248;2022-09-09T07:35:13;17.70;99.90
16301;DHT22;8258;51.020;4.248;2022-09-09T07:37:40;17.30;99.90
16301;DHT22;8258;51.020;4.248;2022-09-09T07:40:13;16.70;99.90
16301;DHT22;8258;51.020;4.248;2022-09-09T07:42:40;16.40;99.90
16301;DHT22;8258;51.020;4.248;2022-09-09T07:45:07;16.20;99.90
16301;DHT22;8258;51.020;4.248;2022-09-09T07:47:34;16.20;99.90
16301;DHT22;8258;51.020;4.248;2022-09-09T07:50:03;16.30;99.90
16301;DHT22;8258;51.020;4.248;2022-09-09T07:52:30;16.30;99.90
16301;DHT22;8258;51.020;4.248;2022-09-09T07:54:57;16.30;99.90
16301;DHT22;8258;51.020;4.248;2022-09-09T07:57:24;16.40;99.90
16301;DHT22;8258;51.020;4.248;2022-09-09T07:59:51;16.50;99.90
16301;DHT22;8258;51.020;4.248;2022-09-09T08:02:18;16.60;99.90
16301;DHT22;8258;51.020;4.248;2022-09-09T08:04:45;16.70;99.90
16301;DHT22;8258;51.020;4.248;2022-09-09T08:07:13;16.70;99.90
16301;DHT22;8258;51.020;4.248;2022-09-09T08:09:41;16.90;99.90
16301;DHT22;8258;51.020;4.248;2022-09-09T08:12:09;17.10;99.90
16301;DHT22;8258;51.020;4.248;2022-09-09T08:14:38;17.10;99.90
16301;DHT22;8258;51.020;4.248;2022-09-09T08:17:05;17.10;99.90
16301;DHT22;8258;51.020;4.248;2022-09-09T08:19:32;17.10;99.90
16301;DHT22;8258;51.020;4.248;2022-09-09T08:22:01;17.20;99.90
16301;DHT22;8258;51.020;4.248;2022-09-09T08:24:30;17.20;99.90
16301;DHT22;8258;51.020;4.248;2022-09-09T08:26:57;17.10;99.90
16301;DHT22;8258;51.020;4.248;2022-09-09T08:29:24;16.90;99.90
16301;DHT22;8258;51.020;4.248;2022-09-09T08:31:52;16.90;99.90
16301;DHT22;8258;51.020;4.248;2022-09-09T08:34:20;17.10;99.90
16301;DHT22;8258;51.020;4.248;2022-09-09T08:36:48;17.10;99.90
16301;DHT22;8258;51.020;4.248;2022-09-09T08:39:17;17.00;99.90
16301;DHT22;8258;51.020;4.248;2022-09-09T08:45:22;16.70;99.90
16301;DHT22;8258;51.020;4.248;2022-09-09T08:48:01;16.60;99.90
16301;DHT22;8258;51.020;4.248;2022-09-09T08:50:30;16.70;99.90
16301;DHT22;8258;51.020;4.248;2022-09-09T08:53:02;16.60;99.90
16301;DHT22;8258;51.020;4.248;2022-09-09T08:55:38;16.50;99.90
16301;DHT22;8258;51.020;4.248;2022-09-09T08:58:12;16.40;99.90
16301;DHT22;8258;51.020;4.248;2022-09-09T09:00:53;16.40;99.90
16301;DHT22;8258;51.020;4.248;2022-09-09T09:03:30;16.30;99.90
16301;DHT22;8258;51.020;4.248;2022-09-09T09:06:06;16.40;99.90
16301;DHT22;8258;51.020;4.248;2022-09-09T09:08:43;16.40;99.90
16301;DHT22;8258;51.020;4.248;2022-09-09T09:11:10;16.40;99.90
16301;DHT22;8258;51.020;4.248;2022-09-09T09:13:42;16.50;99.90
16301;DHT22;8258;51.020;4.248;2022-09-09T09:16:19;16.50;99.90
16301;DHT22;8258;51.020;4.248;2022-09-09T09:18:48;16.60;99.90
16301;DHT22;8258;51.020;4.248;2022-09-09T09:21:20;16.60;99.90
16301;DHT22;8258;51.020;4.248;2022-09-09T09:23:56;16.60;99.90
16301;DHT22;8258;51.020;4.248;2022-09-09T09:26:25;16.60;99.90
16301;DHT22;8258;51.020;4.248;2022-09-09T09:28:55;16.70;99.90
16301;DHT22;8258;51.020;4.248;2022-09-09T09:31:30;16.70;99.90
16301;DHT22;8258;51.020;4.248;2022-09-09T09:33:57;16.80;99.90
16301;DHT22;8258;51.020;4.248;2022-09-09T09:36:33;16.90;99.90
16301;DHT22;8258;51.020;4.248;2022-09-09T09:39:02;16.90;99.90
16301;DHT22;8258;51.020;4.248;2022-09-09T09:41:32;16.90;99.90
16301;DHT22;8258;51.020;4.248;2022-09-09T09:44:01;17.00;99.90
16301;DHT22;8258;51.020;4.248;2022-09-09T09:46:31;17.10;99.90
16301;DHT22;8258;51.020;4.248;2022-09-09T09:49:00;17.10;99.90
16301;DHT22;8258;51.020;4.248;2022-09-09T09:51:29;17.10;99.90
16301;DHT22;8258;51.020;4.248;2022-09-09T09:54:07;17.10;99.90
16301;DHT22;8258;51.020;4.248;2022-09-09T09:56:35;17.00;99.90
16301;DHT22;8258;51.020;4.248;2022-09-09T09:59:03;17.10;99.90
16301;DHT22;8258;51.020;4.248;2022-09-09T10:01:32;17.10;99.90
16301;DHT22;8258;51.020;4.248;2022-09-09T10:04:01;17.10;99.90
16301;DHT22;8258;51.020;4.248;2022-09-09T10:06:33;17.10;99.90
16301;DHT22;8258;51.020;4.248;2022-09-09T10:09:02;17.20;99.90
16301;DHT22;8258;51.020;4.248;2022-09-09T10:11:44;17.20;99.90
16301;DHT22;8258;51.020;4.248;2022-09-09T10:14:18;17.20;99.90
16301;DHT22;8258;51.020;4.248;2022-09-09T10:16:57;17.20;99.90
16301;DHT22;8258;51.020;4.248;2022-09-09T10:19:30;17.30;99.90
16301;DHT22;8258;51.020;4.248;2022-09-09T10:22:05;17.60;99.90
16301;DHT22;8258;51.020;4.248;2022-09-09T10:24:59;17.70;99.90
16301;DHT22;8258;51.020;4.248;2022-09-09T10:27:38;17.70;99.90
16301;DHT22;8258;51.020;4.248;2022-09-09T10:30:14;17.80;99.90
16301;DHT22;8258;51.020;4.248;2022-09-09T10:32:49;17.80;99.90
16301;DHT22;8258;51.020;4.248;2022-09-09T10:35:27;17.70;99.90
16301;DHT22;8258;51.020;4.248;2022-09-09T10:38:15;17.70;99.90
16301;DHT22;8258;51.020;4.248;2022-09-09T10:40:48;17.80;99.90
16301;DHT22;8258;51.020;4.248;2022-09-09T10:43:28;17.80;99.90
16301;DHT22;8258;51.020;4.248;2022-09-09T10:46:06;17.80;99.90
16301;DHT22;8258;51.020;4.248;2022-09-09T10:48:56;17.70;99.90
16301;DHT22;8258;51.020;4.248;2022-09-09T10:51:37;17.80;99.90
16301;DHT22;8258;51.020;4.248;2022-09-09T10:54:30;17.80;99.90
16301;DHT22;8258;51.020;4.248;2022-09-09T10:57:03;17.80;99.90
16301;DHT22;8258;51.020;4.248;2022-09-09T10:59:35;17.70;99.90
16301;DHT22;8258;51.020;4.248;2022-09-09T11:02:11;17.70;99.90
16301;DHT22;8258;51.020;4.248;2022-09-09T11:04:45;17.80;99.90
16301;DHT22;8258;51.020;4.248;2022-09-09T11:07:24;18.00;99.90
16301;DHT22;8258;51.020;4.248;2022-09-09T11:09:59;18.00;99.90
16301;DHT22;8258;51.020;4.248;2022-09-09T11:12:29;18.20;99.90
16301;DHT22;8258;51.020;4.248;2022-09-09T11:15:01;18.50;99.90
16301;DHT22;8258;51.020;4.248;2022-09-09T11:17:36;18.70;99.90
16301;DHT22;8258;51.020;4.248;2022-09-09T11:20:11;18.80;99.90
16301;DHT22;8258;51.020;4.248;2022-09-09T11:22:44;19.10;99.90
16301;DHT22;8258;51.020;4.248;2022-09-09T11:25:16;19.10;99.90
16301;DHT22;8258;51.020;4.248;2022-09-09T11:27:58;19.30;99.90
16301;DHT22;8258;51.020;4.248;2022-09-09T11:30:46;19.70;99.90
16301;DHT22;8258;51.020;4.248;2022-09-09T11:33:32;20.20;99.90
16301;DHT22;8258;51.020;4.248;2022-09-09T11:36:16;19.80;99.90
16301;DHT22;8258;51.020;4.248;2022-09-09T11:38:52;19.80;99.90
16301;DHT22;8258;51.020;4.248;2022-09-09T11:41:21;19.70;99.90
16301;DHT22;8258;51.020;4.248;2022-09-09T11:43:50;19.80;99.90
16301;DHT22;8258;51.020;4.248;2022-09-09T11:46:22;19.70;99.90
16301;DHT22;8258;51.020;4.248;2022-09-09T11:48:58;19.50;99.90
16301;DHT22;8258;51.020;4.248;2022-09-09T11:51:28;19.70;99.90
16301;DHT22;8258;51.020;4.248;2022-09-09T11:53:57;20.10;99.90
16301;DHT22;8258;51.020;4.248;2022-09-09T11:56:29;20.20;99.90
16301;DHT22;8258;51.020;4.248;2022-09-09T11:58:59;20.10;99.90
16301;DHT22;8258;51.020;4.248;2022-09-09T12:01:38;20.00;99.90
16301;DHT22;8258;51.020;4.248;2022-09-09T12:07:03;20.20;99.90
16301;DHT22;8258;51.020;4.248;2022-09-09T12:09:42;20.00;99.90
16301;DHT22;8258;51.020;4.248;2022-09-09T12:12:25;20.20;99.90
16301;DHT22;8258;51.020;4.248;2022-09-09T12:15:21;21.10;99.90
16301;DHT22;8258;51.020;4.248;2022-09-09T12:17:49;22.40;99.90
16301;DHT22;8258;51.020;4.248;2022-09-09T12:20:19;22.10;99.90
16301;DHT22;8258;51.020;4.248;2022-09-09T12:23:13;22.20;99.90
16301;DHT22;8258;51.020;4.248;2022-09-09T12:26:03;21.70;99.90
16301;DHT22;8258;51.020;4.248;2022-09-09T12:28:42;21.90;99.90
16301;DHT22;8258;51.020;4.248;2022-09-09T12:31:17;22.00;99.90
16301;DHT22;8258;51.020;4.248;2022-09-09T12:33:45;21.50;99.90
16301;DHT22;8258;51.020;4.248;2022-09-09T12:36:16;21.00;99.90
16301;DHT22;8258;51.020;4.248;2022-09-09T12:38:46;21.30;99.90
16301;DHT22;8258;51.020;4.248;2022-09-09T12:41:23;21.50;99.90
16301;DHT22;8258;51.020;4.248;2022-09-09T12:43:51;21.60;99.90
16301;DHT22;8258;51.020;4.248;2022-09-09T12:46:24;21.40;99.90
16301;DHT22;8258;51.020;4.248;2022-09-09T12:48:55;21.40;99.90
16301;DHT22;8258;51.020;4.248;2022-09-09T12:51:27;21.20;99.90
16301;DHT22;8258;51.020;4.248;2022-09-09T12:53:56;22.00;99.90
16301;DHT22;8258;51.020;4.248;2022-09-09T12:56:25;23.80;99.90
16301;DHT22;8258;51.020;4.248;2022-09-09T12:58:54;24.90;99.90
16301;DHT22;8258;51.020;4.248;2022-09-09T13:01:24;24.80;99.90
16301;DHT22;8258;51.020;4.248;2022-09-09T13:03:52;25.00;99.90
16301;DHT22;8258;51.020;4.248;2022-09-09T13:06:21;23.90;99.90
16301;DHT22;8258;51.020;4.248;2022-09-09T13:08:49;23.00;99.90
16301;DHT22;8258;51.020;4.248;2022-09-09T13:11:21;21.90;99.90
16301;DHT22;8258;51.020;4.248;2022-09-09T13:13:53;21.60;99.90
16301;DHT22;8258;51.020;4.248;2022-09-09T13:16:23;21.80;99.90
16301;DHT22;8258;51.020;4.248;2022-09-09T13:18:52;22.60;99.90
16301;DHT22;8258;51.020;4.248;2022-09-09T13:21:31;23.20;99.90
16301;DHT22;8258;51.020;4.248;2022-09-09T13:23:58;23.30;99.90
16301;DHT22;8258;51.020;4.248;2022-09-09T13:26:30;23.20;99.90
16301;DHT22;8258;51.020;4.248;2022-09-09T13:29:09;23.30;99.90
16301;DHT22;8258;51.020;4.248;2022-09-09T13:31:43;24.20;99.90
16301;DHT22;8258;51.020;4.248;2022-09-09T13:34:11;24.50;99.90
16301;DHT22;8258;51.020;4.248;2022-09-09T13:36:40;24.00;99.90
16301;DHT22;8258;51.020;4.248;2022-09-09T13:39:16;23.20;99.90
16301;DHT22;8258;51.020;4.248;2022-09-09T13:41:46;23.00;99.90
16301;DHT22;8258;51.020;4.248;2022-09-09T13:44:18;23.00;99.90
16301;DHT22;8258;51.020;4.248;2022-09-09T13:46:46;23.00;99.90
16301;DHT22;8258;51.020;4.248;2022-09-09T13:49:21;22.80;99.90
16301;DHT22;8258;51.020;4.248;2022-09-09T13:51:50;23.50;99.90
16301;DHT22;8258;51.020;4.248;2022-09-09T13:54:20;23.80;99.90
16301;DHT22;8258;51.020;4.248;2022-09-09T13:56:49;22.90;99.90
16301;DHT22;8258;51.020;4.248;2022-09-09T13:59:18;22.00;99.90
16301;DHT22;8258;51.020;4.248;2022-09-09T14:01:47;21.60;99.90
16301;DHT22;8258;51.020;4.248;2022-09-09T14:04:14;21.40;99.90
16301;DHT22;8258;51.020;4.248;2022-09-09T14:06:42;21.30;99.90
16301;DHT22;8258;51.020;4.248;2022-09-09T14:09:12;21.40;99.90
16301;DHT22;8258;51.020;4.248;2022-09-09T14:11:39;21.40;99.90
16301;DHT22;8258;51.020;4.248;2022-09-09T14:14:08;21.50;99.90
16301;DHT22;8258;51.020;4.248;2022-09-09T14:16:35;21.90;99.90
16301;DHT22;8258;51.020;4.248;2022-09-09T14:19:03;22.50;99.90
16301;DHT22;8258;51.020;4.248;2022-09-09T14:21:30;23.00;99.90
16301;DHT22;8258;51.020;4.248;2022-09-09T14:23:58;22.60;99.90
16301;DHT22;8258;51.020;4.248;2022-09-09T14:26:25;22.20;99.90
16301;DHT22;8258;51.020;4.248;2022-09-09T14:28:52;22.00;99.90
16301;DHT22;8258;51.020;4.248;2022-09-09T14:31:20;21.80;99.90
16301;DHT22;8258;51.020;4.248;2022-09-09T14:33:47;21.60;99.90
16301;DHT22;8258;51.020;4.248;2022-09-09T14:36:14;21.40;99.90
16301;DHT22;8258;51.020;4.248;2022-09-09T14:38:41;21.30;99.90
16301;DHT22;8258;51.020;4.248;2022-09-09T14:41:09;21.20;99.90
16301;DHT22;8258;51.020;4.248;2022-09-09T14:43:37;21.30;99.90
16301;DHT22;8258;51.020;4.248;2022-09-09T14:46:05;21.10;99.90
16301;DHT22;8258;51.020;4.248;2022-09-09T14:48:33;21.00;99.90
16301;DHT22;8258;51.020;4.248;2022-09-09T14:51:06;21.00;99.90
16301;DHT22;8258;51.020;4.248;2022-09-09T14:53:33;21.10;99.90
16301;DHT22;8258;51.020;4.248;2022-09-09T14:56:04;21.40;99.90
16301;DHT22;8258;51.020;4.248;2022-09-09T14:58:31;21.60;99.90
16301;DHT22;8258;51.020;4.248;2022-09-09T15:01:03;21.60;99.90
16301;DHT22;8258;51.020;4.248;2022-09-09T15:03:30;21.40;99.90
16301;DHT22;8258;51.020;4.248;2022-09-09T15:06:04;21.00;99.90
16301;DHT22;8258;51.020;4.248;2022-09-09T15:08:31;20.70;99.90
16301;DHT22;8258;51.020;4.248;2022-09-09T15:10:59;20.20;99.90
16301;DHT22;8258;51.020;4.248;2022-09-09T15:13:26;19.50;99.90
16301;DHT22;8258;51.020;4.248;2022-09-09T15:15:53;18.80;99.90
16301;DHT22;8258;51.020;4.248;2022-09-09T15:18:21;18.20;99.90
16301;DHT22;8258;51.020;4.248;2022-09-09T15:20:47;17.60;99.90
16301;DHT22;8258;51.020;4.248;2022-09-09T15:23:16;17.50;99.90
16301;DHT22;8258;51.020;4.248;2022-09-09T15:25:53;17.20;99.90
16301;DHT22;8258;51.020;4.248;2022-09-09T15:28:21;17.10;99.90
16301;DHT22;8258;51.020;4.248;2022-09-09T15:30:48;17.20;99.90
16301;DHT22;8258;51.020;4.248;2022-09-09T15:33:15;17.40;99.90
16301;DHT22;8258;51.020;4.248;2022-09-09T15:35:42;17.70;99.90
16301;DHT22;8258;51.020;4.248;2022-09-09T15:38:09;17.80;99.90
16301;DHT22;8258;51.020;4.248;2022-09-09T15:40:40;17.90;99.90
16301;DHT22;8258;51.020;4.248;2022-09-09T15:43:07;18.00;99.90
16301;DHT22;8258;51.020;4.248;2022-09-09T15:45:35;17.80;99.90
16301;DHT22;8258;51.020;4.248;2022-09-09T15:48:02;17.80;99.90
16301;DHT22;8258;51.020;4.248;2022-09-09T15:50:30;17.70;99.90
16301;DHT22;8258;51.020;4.248;2022-09-09T15:52:58;17.60;99.90
16301;DHT22;8258;51.020;4.248;2022-09-09T15:55:24;17.60;99.90
16301;DHT22;8258;51.020;4.248;2022-09-09T15:57:53;17.60;99.90
16301;DHT22;8258;51.020;4.248;2022-09-09T16:00:21;17.70;99.90
16301;DHT22;8258;51.020;4.248;2022-09-09T16:02:48;17.90;99.90
16301;DHT22;8258;51.020;4.248;2022-09-09T16:05:15;18.10;99.90
16301;DHT22;8258;51.020;4.248;2022-09-09T16:07:42;18.20;99.90
16301;DHT22;8258;51.020;4.248;2022-09-09T16:10:10;18.20;99.90
16301;DHT22;8258;51.020;4.248;2022-09-09T16:12:39;18.30;99.90
16301;DHT22;8258;51.020;4.248;2022-09-09T16:15:08;18.40;99.90
16301;DHT22;8258;51.020;4.248;2022-09-09T16:17:35;18.30;99.90